createdAt,value
2018-11-12T00:01:06.346Z,39.21
2018-11-12T00:03:35.178Z,39.24
2018-11-12T00:06:04.070Z,38.85
2018-11-12T00:08:32.857Z,38.93
2018-11-12T00:11:01.601Z,38.70
2018-11-12T00:13:30.478Z,38.96
2018-11-12T00:15:59.211Z,39.05
2018-11-12T00:18:27.969Z,38.91
2018-11-12T00:20:56.817Z,39.16
2018-11-12T00:23:25.615Z,39.06
2018-11-12T00:25:54.381Z,38.98
2018-11-12T00:28:24.138Z,39.05
2018-11-12T00:30:52.907Z,39.00
2018-11-12T00:33:21.717Z,38.94
2018-11-12T00:35:50.446Z,38.44
2018-11-12T00:38:19.195Z,39.03
2018-11-12T00:40:47.973Z,38.67
2018-11-12T00:43:16.765Z,38.95
2018-11-12T00:45:45.529Z,38.82
2018-11-12T00:48:15.258Z,38.71
2018-11-12T00:50:44.007Z,38.94
2018-11-12T00:53:12.772Z,38.32
2018-11-12T00:55:41.501Z,38.65
2018-11-12T00:58:10.258Z,38.81
2018-11-12T01:00:39.177Z,38.42
2018-11-12T01:03:07.929Z,38.37
2018-11-12T01:05:37.582Z,38.43
2018-11-12T01:08:06.419Z,38.83
2018-11-12T01:10:35.209Z,38.72
2018-11-12T01:13:04.048Z,38.93
2018-11-12T01:15:32.860Z,38.80
2018-11-12T01:18:01.690Z,38.92
2018-11-12T01:20:30.493Z,38.92
2018-11-12T01:22:59.221Z,38.30
2018-11-12T01:25:28.007Z,38.45
2018-11-12T01:27:56.750Z,38.58
2018-11-12T01:30:25.504Z,38.92
2018-11-12T01:32:54.236Z,38.86
2018-11-12T01:35:23.021Z,38.89
2018-11-12T01:37:51.896Z,38.80
2018-11-12T01:40:20.660Z,38.41
2018-11-12T01:42:49.386Z,38.90
2018-11-12T01:45:19.350Z,38.82
2018-11-12T01:47:49.192Z,38.17
2018-11-12T01:50:18.558Z,38.46
2018-11-12T01:52:48.090Z,38.68
2018-11-12T01:55:17.866Z,38.73
2018-11-12T01:57:46.744Z,38.21
2018-11-12T02:00:21.385Z,38.70
2018-11-12T02:02:51.519Z,38.79
2018-11-12T02:05:20.725Z,38.80
2018-11-12T02:07:49.550Z,38.70
2018-11-12T02:10:19.171Z,38.30
2018-11-12T02:12:47.967Z,38.47
2018-11-12T02:15:18.009Z,38.44
2018-11-12T02:17:47.536Z,38.67
2018-11-12T02:20:17.455Z,38.67
2018-11-12T02:22:47.399Z,38.16
2018-11-12T02:25:16.561Z,38.72
2018-11-12T02:27:45.398Z,38.59
2018-11-12T02:30:16.303Z,38.05
2018-11-12T02:32:45.120Z,38.68
2018-11-12T02:35:14.017Z,38.37
2018-11-12T02:37:42.734Z,38.77
2018-11-12T02:40:12.658Z,38.71
2018-11-12T02:42:42.371Z,38.15
2018-11-12T02:45:12.326Z,38.65
2018-11-12T02:47:42.136Z,38.00
2018-11-12T02:50:13.207Z,38.60
2018-11-12T02:52:42.155Z,38.01
2018-11-12T02:55:12.669Z,38.66
2018-11-12T02:57:42.275Z,38.19
2018-11-12T03:00:13.686Z,38.13
2018-11-12T03:02:43.070Z,38.42
2018-11-12T03:05:12.443Z,37.97
2018-11-12T03:07:41.642Z,38.44
2018-11-12T03:10:17.524Z,38.17
2018-11-12T03:12:46.280Z,38.65
2018-11-12T03:15:15.795Z,38.11
2018-11-12T03:17:45.409Z,38.01
2018-11-12T03:20:15.577Z,38.64
2018-11-12T03:22:44.347Z,38.30
2018-11-12T03:25:14.248Z,38.57
2018-11-12T03:27:43.820Z,38.42
2018-11-12T03:30:14.130Z,38.52
2018-11-12T03:32:43.396Z,38.50
2018-11-12T03:35:12.862Z,38.15
2018-11-12T03:37:42.796Z,38.58
2018-11-12T03:40:16.436Z,38.59
2018-11-12T03:42:45.950Z,38.02
2018-11-12T03:45:29.096Z,38.64
2018-11-12T03:47:57.925Z,38.51
2018-11-12T03:50:26.729Z,37.97
2018-11-12T03:52:55.549Z,38.44
2018-11-12T03:55:24.586Z,37.95
2018-11-12T03:57:53.311Z,38.02
2018-11-12T04:00:27.149Z,37.98
2018-11-12T04:02:55.927Z,38.01
2018-11-12T04:05:24.702Z,38.48
2018-11-12T04:07:53.433Z,38.10
2018-11-12T04:10:22.440Z,38.06
2018-11-12T04:12:51.569Z,37.94
2018-11-12T04:15:21.869Z,38.42
2018-11-12T04:18:21.462Z,38.56
2018-11-12T04:20:50.229Z,38.44
2018-11-12T04:23:19.005Z,37.89
2018-11-12T04:25:47.833Z,37.93
2018-11-12T04:28:16.590Z,37.91
2018-11-12T04:30:45.431Z,37.84
2018-11-12T04:33:14.158Z,38.32
2018-11-12T04:35:42.905Z,37.86
2018-11-12T04:38:11.697Z,38.43
2018-11-12T04:40:40.424Z,38.38
2018-11-12T04:43:09.164Z,38.50
2018-11-12T04:45:37.969Z,37.87
2018-11-12T04:48:06.633Z,38.16
2018-11-12T04:50:35.426Z,38.07
2018-11-12T04:53:04.204Z,38.26
2018-11-12T04:55:32.969Z,37.81
2018-11-12T04:58:01.820Z,38.34
2018-11-12T05:00:30.638Z,37.72
2018-11-12T05:02:59.426Z,38.43
2018-11-12T05:05:28.971Z,37.87
2018-11-12T05:07:57.723Z,38.36
2018-11-12T05:10:27.401Z,37.75
2018-11-12T05:12:56.451Z,38.28
2018-11-12T05:15:25.878Z,38.03
2018-11-12T05:17:54.631Z,37.94
2018-11-12T05:20:24.802Z,38.34
2018-11-12T05:22:53.633Z,37.80
2018-11-12T05:25:22.434Z,38.23
2018-11-12T05:27:51.199Z,38.41
2018-11-12T05:30:24.322Z,38.12
2018-11-12T05:32:53.258Z,38.05
2018-11-12T05:35:23.269Z,38.22
2018-11-12T05:37:52.133Z,38.33
2018-11-12T05:40:22.236Z,38.10
2018-11-12T05:42:51.020Z,38.47
2018-11-12T05:45:21.077Z,38.00
2018-11-12T05:47:49.825Z,37.95
2018-11-12T05:50:20.962Z,38.14
2018-11-12T05:52:51.059Z,37.93
2018-11-12T05:55:21.349Z,37.87
2018-11-12T05:57:50.120Z,37.80
2018-11-12T06:00:21.860Z,37.92
2018-11-12T06:02:50.649Z,37.80
2018-11-12T06:05:20.073Z,38.35
2018-11-12T06:07:48.842Z,37.82
2018-11-12T06:10:18.908Z,37.79
2018-11-12T06:12:48.257Z,37.84
2018-11-12T06:15:17.536Z,38.39
2018-11-12T06:17:47.081Z,37.75
2018-11-12T06:20:18.970Z,38.24
2018-11-12T06:22:48.097Z,37.66
2018-11-12T06:25:18.321Z,37.65
2018-11-12T06:27:47.308Z,38.13
2018-11-12T06:30:18.326Z,37.70
2018-11-12T06:32:47.205Z,38.27
2018-11-12T06:35:16.472Z,37.73
2018-11-12T06:37:46.028Z,37.77
2018-11-12T06:40:15.955Z,38.23
2018-11-12T06:42:44.933Z,37.94
2018-11-12T06:45:17.911Z,37.54
2018-11-12T06:47:47.697Z,38.60
2018-11-12T06:50:18.791Z,38.34
2018-11-12T06:52:47.711Z,40.02
2018-11-12T06:55:17.095Z,40.34
2018-11-12T06:57:46.168Z,40.73
2018-11-12T07:00:19.264Z,41.13
2018-11-12T07:02:48.136Z,41.05
2018-11-12T07:05:17.155Z,40.91
2018-11-12T07:07:46.037Z,41.30
2018-11-12T07:10:16.849Z,41.57
2018-11-12T07:12:46.548Z,41.35
2018-11-12T07:15:16.549Z,41.39
2018-11-12T07:17:45.371Z,41.78
2018-11-12T07:20:15.639Z,41.48
2018-11-12T07:22:44.730Z,41.42
2018-11-12T07:25:14.413Z,41.43
2018-11-12T07:27:43.116Z,40.79
2018-11-12T07:30:17.075Z,41.23
2018-11-12T07:32:46.612Z,40.79
2018-11-12T07:35:16.029Z,41.20
2018-11-12T07:37:45.863Z,40.72
2018-11-12T07:40:15.267Z,40.78
2018-11-12T07:42:44.256Z,41.30
2018-11-12T07:45:43.962Z,41.39
2018-11-12T07:48:12.704Z,41.44
2018-11-12T07:50:41.457Z,41.50
2018-11-12T07:53:10.215Z,41.62
2018-11-12T07:55:38.967Z,41.12
2018-11-12T07:58:07.804Z,41.31
2018-11-12T08:00:36.577Z,41.66
2018-11-12T08:03:08.806Z,41.64
2018-11-12T08:05:38.061Z,41.41
2018-11-12T08:08:07.263Z,41.00
2018-11-12T08:10:36.008Z,40.89
2018-11-12T08:13:05.847Z,41.04
2018-11-12T08:15:34.612Z,41.31
2018-11-12T08:18:03.398Z,41.40
2018-11-12T08:20:32.185Z,40.99
2018-11-12T08:23:00.921Z,41.19
2018-11-12T08:25:29.743Z,41.43
2018-11-12T08:27:58.535Z,40.85
2018-11-12T08:30:28.553Z,40.83
2018-11-12T08:32:58.735Z,40.82
2018-11-12T08:35:27.845Z,40.92
2018-11-12T08:37:56.857Z,41.42
2018-11-12T08:40:26.855Z,41.31
2018-11-12T08:42:55.532Z,41.04
2018-11-12T08:45:24.317Z,40.88
2018-11-12T08:47:54.240Z,40.84
2018-11-12T08:50:24.425Z,41.22
2018-11-12T08:52:54.026Z,40.87
2018-11-12T08:55:24.075Z,40.92
2018-11-12T08:57:55.174Z,40.85
2018-11-12T09:00:24.812Z,40.66
2018-11-12T09:02:53.611Z,41.02
2018-11-12T09:05:23.774Z,41.15
2018-11-12T09:07:57.053Z,40.60
2018-11-12T09:10:27.392Z,41.23
2018-11-12T09:12:56.144Z,41.07
2018-11-12T09:15:24.996Z,41.13
2018-11-12T09:17:53.823Z,40.59
2018-11-12T09:20:23.792Z,40.44
2018-11-12T09:22:52.966Z,40.87
2018-11-12T09:25:23.089Z,41.06
2018-11-12T09:27:51.928Z,40.47
2018-11-12T09:30:22.015Z,40.56
2018-11-12T09:32:50.994Z,40.96
2018-11-12T09:35:21.277Z,40.47
2018-11-12T09:37:51.081Z,40.87
2018-11-12T09:40:21.441Z,40.87
2018-11-12T09:42:50.483Z,40.29
2018-11-12T09:45:19.317Z,40.24
2018-11-12T09:47:48.148Z,40.20
2018-11-12T09:50:23.302Z,40.82
2018-11-12T09:52:53.361Z,40.21
2018-11-12T09:55:23.217Z,40.64
2018-11-12T09:57:53.776Z,40.23
2018-11-12T10:00:22.730Z,40.18
2018-11-12T10:02:52.718Z,40.61
2018-11-12T10:05:22.295Z,39.93
2018-11-12T10:08:23.341Z,40.61
2018-11-12T10:10:54.196Z,39.90
2018-11-12T10:13:26.217Z,40.48
2018-11-12T10:15:54.232Z,40.14
2018-11-12T10:18:20.870Z,40.23
2018-11-12T10:20:49.686Z,40.42
2018-11-12T10:23:18.798Z,40.28
2018-11-12T10:25:47.605Z,40.16
2018-11-12T10:28:16.877Z,39.97
2018-11-12T10:30:45.629Z,40.17
2018-11-12T10:33:14.409Z,39.68
2018-11-12T10:35:43.183Z,39.57
2018-11-12T10:38:11.936Z,40.18
2018-11-12T10:40:40.754Z,39.53
2018-11-12T10:43:09.513Z,39.58
2018-11-12T10:45:38.282Z,40.07
2018-11-12T10:48:07.496Z,39.54
2018-11-12T10:50:36.265Z,39.42
2018-11-12T10:53:05.634Z,39.41
2018-11-12T10:55:34.594Z,39.46
2018-11-12T10:58:03.284Z,39.39
2018-11-12T11:00:38.448Z,39.87
2018-11-12T11:03:16.469Z,39.83
2018-11-12T11:05:46.474Z,39.78
2018-11-12T11:08:15.273Z,39.24
2018-11-12T11:10:44.023Z,39.19
2018-11-12T11:13:12.825Z,39.19
2018-11-12T11:15:41.713Z,39.48
2018-11-12T11:18:10.518Z,39.64
2018-11-12T11:20:39.257Z,39.44
2018-11-12T11:23:08.050Z,39.54
2018-11-12T11:25:36.883Z,39.14
2018-11-12T11:28:05.927Z,39.01
2018-11-12T11:30:34.669Z,39.59
2018-11-12T11:33:03.422Z,39.16
2018-11-12T11:35:32.210Z,39.48
2018-11-12T11:38:00.997Z,39.01
2018-11-12T11:40:29.820Z,38.90
2018-11-12T11:42:59.251Z,39.44
2018-11-12T11:45:28.038Z,39.41
2018-11-12T11:47:56.855Z,39.10
2018-11-12T11:50:26.820Z,38.68
2018-11-12T11:52:55.591Z,38.73
2018-11-12T11:55:25.123Z,38.56
2018-11-12T11:57:54.450Z,39.22
2018-11-12T12:00:26.419Z,39.17
2018-11-12T12:02:56.207Z,39.04
2018-11-12T12:05:25.802Z,38.65
2018-11-12T12:07:55.342Z,38.56
2018-11-12T12:10:24.142Z,38.48
2018-11-12T12:12:53.503Z,38.81
2018-11-12T12:15:23.132Z,38.94
2018-11-12T12:17:51.874Z,38.73
2018-11-12T12:20:21.997Z,38.79
2018-11-12T12:22:50.834Z,38.83
2018-11-12T12:25:20.074Z,38.53
2018-11-12T12:27:49.219Z,38.52
2018-11-12T12:30:22.495Z,38.66
2018-11-12T12:32:52.122Z,38.14
2018-11-12T12:35:20.936Z,38.76
2018-11-12T12:37:50.001Z,38.72
2018-11-12T12:40:20.022Z,38.16
2018-11-12T12:42:48.904Z,38.13
2018-11-12T12:45:18.994Z,38.13
2018-11-12T12:47:48.412Z,38.60
2018-11-12T12:50:17.935Z,38.58
2018-11-12T12:52:46.746Z,38.16
2018-11-12T12:55:16.254Z,38.15
2018-11-12T12:57:45.551Z,38.34
2018-11-12T13:00:18.437Z,38.02
2018-11-12T13:02:47.245Z,37.98
2018-11-12T13:05:16.052Z,38.52
2018-11-12T13:07:44.830Z,38.09
2018-11-12T13:10:15.097Z,38.12
2018-11-12T13:12:43.898Z,38.56
2018-11-12T13:15:14.937Z,38.00
2018-11-12T13:17:44.458Z,38.56
2018-11-12T13:20:14.578Z,38.46
2018-11-12T13:22:43.984Z,38.44
2018-11-12T13:25:12.789Z,38.59
2018-11-12T13:27:42.074Z,38.47
2018-11-12T13:30:13.126Z,37.93
2018-11-12T13:32:42.399Z,37.94
2018-11-12T13:35:13.572Z,37.85
2018-11-12T13:37:42.586Z,38.10
2018-11-12T13:40:16.645Z,37.97
2018-11-12T13:42:46.923Z,37.99
2018-11-12T13:45:15.729Z,38.38
2018-11-12T13:47:44.690Z,38.47
2018-11-12T13:50:15.920Z,38.00
2018-11-12T13:52:44.978Z,38.01
2018-11-12T13:55:14.870Z,37.83
2018-11-12T13:57:44.170Z,38.40
2018-11-12T14:00:15.246Z,37.93
2018-11-12T14:02:44.961Z,37.86
2018-11-12T14:05:15.609Z,37.87
2018-11-12T14:07:45.012Z,38.33
2018-11-12T14:10:15.153Z,38.35
2018-11-12T14:12:44.515Z,38.24
2018-11-12T14:15:15.220Z,37.87
2018-11-12T14:17:44.344Z,37.83
2018-11-12T14:20:13.212Z,37.81
2018-11-12T14:22:42.056Z,37.85
2018-11-12T14:25:12.641Z,38.29
2018-11-12T14:27:41.624Z,38.37
2018-11-12T14:30:12.449Z,37.97
2018-11-12T14:32:41.236Z,38.39
2018-11-12T14:35:11.010Z,38.39
2018-11-12T14:37:40.127Z,38.27
2018-11-12T14:40:10.325Z,37.71
2018-11-12T14:42:39.210Z,38.12
2018-11-12T14:45:09.788Z,37.78
2018-11-12T14:47:38.566Z,37.97
2018-11-12T14:50:07.460Z,38.06
2018-11-12T14:52:37.056Z,37.89
2018-11-12T14:55:07.429Z,37.67
2018-11-12T14:57:36.193Z,38.21
2018-11-12T15:00:08.739Z,38.12
2018-11-12T15:02:37.543Z,37.67
2018-11-12T15:05:06.391Z,38.22
2018-11-12T15:07:35.163Z,38.16
2018-11-12T15:10:04.431Z,37.67
2018-11-12T15:12:33.225Z,37.72
2018-11-12T15:15:02.029Z,37.75
2018-11-12T15:17:30.896Z,38.21
2018-11-12T15:19:59.676Z,37.81
2018-11-12T15:22:28.509Z,37.58
2018-11-12T15:24:57.347Z,37.66
2018-11-12T15:27:26.130Z,37.50
2018-11-12T15:29:54.893Z,38.15
2018-11-12T15:32:23.684Z,37.61
2018-11-12T15:34:52.643Z,37.54
2018-11-12T15:37:21.499Z,37.72
2018-11-12T15:39:50.275Z,38.07
2018-11-12T15:42:19.065Z,37.84
2018-11-12T15:44:48.703Z,37.80
2018-11-12T15:47:17.470Z,37.64
2018-11-12T15:49:46.335Z,37.49
2018-11-12T15:52:15.174Z,37.53
2018-11-12T15:54:44.028Z,38.01
2018-11-12T15:57:13.223Z,37.40
2018-11-12T15:59:42.038Z,37.62
2018-11-12T16:02:10.901Z,37.37
2018-11-12T16:04:39.830Z,37.48
2018-11-12T16:07:08.619Z,37.37
2018-11-12T16:09:37.442Z,37.55
2018-11-12T16:12:06.341Z,37.90
2018-11-12T16:14:35.166Z,37.93
2018-11-12T16:17:04.088Z,37.42
2018-11-12T16:19:32.861Z,37.88
2018-11-12T16:22:01.673Z,37.42
2018-11-12T16:24:30.544Z,37.36
2018-11-12T16:26:59.443Z,37.36
2018-11-12T16:29:28.282Z,37.27
2018-11-12T16:31:57.131Z,37.27
2018-11-12T16:34:25.974Z,37.69
2018-11-12T16:36:54.847Z,37.56
2018-11-12T16:39:23.632Z,37.19
2018-11-12T16:41:52.447Z,38.06
2018-11-12T16:44:21.248Z,37.27
2018-11-12T16:46:50.135Z,37.31
2018-11-12T16:49:18.975Z,37.35
2018-11-12T16:51:47.860Z,37.20
2018-11-12T16:54:16.647Z,37.26
2018-11-12T16:56:45.552Z,37.75
2018-11-12T16:59:14.370Z,37.79
2018-11-12T17:01:43.194Z,37.22
2018-11-12T17:04:12.068Z,37.71
2018-11-12T17:06:40.883Z,37.70
2018-11-12T17:09:12.429Z,37.20
2018-11-12T17:11:41.287Z,37.13
2018-11-12T17:14:10.427Z,37.26
2018-11-12T17:16:39.648Z,37.75
2018-11-12T17:19:08.460Z,37.23
2018-11-12T17:21:37.311Z,37.13
2018-11-12T17:24:06.192Z,37.20
2018-11-12T17:26:35.025Z,37.71
2018-11-12T17:29:04.520Z,37.30
2018-11-12T17:31:33.353Z,37.68
2018-11-12T17:34:02.185Z,37.65
2018-11-12T17:36:31.134Z,37.52
2018-11-12T17:38:59.993Z,37.22
2018-11-12T17:41:28.833Z,37.61
2018-11-12T17:43:57.712Z,37.56
2018-11-12T17:46:26.563Z,37.39
2018-11-12T17:48:55.552Z,37.38
2018-11-12T17:51:24.394Z,37.32
2018-11-12T17:53:53.484Z,37.70
2018-11-12T17:56:22.297Z,37.58
2018-11-12T17:58:51.233Z,37.67
2018-11-12T18:01:20.154Z,37.29
2018-11-12T18:03:49.016Z,37.11
2018-11-12T18:06:17.854Z,37.09
2018-11-12T18:08:46.752Z,37.32
2018-11-12T18:11:15.681Z,37.13
2018-11-12T18:13:44.607Z,37.63
2018-11-12T18:16:13.480Z,37.04
2018-11-12T18:18:42.462Z,37.42
2018-11-12T18:21:11.416Z,37.25
2018-11-12T18:23:40.253Z,37.66
2018-11-12T18:26:09.075Z,37.33
2018-11-12T18:28:38.032Z,37.86
2018-11-12T18:31:07.212Z,37.59
2018-11-12T18:33:36.092Z,37.63
2018-11-12T18:36:05.053Z,38.01
2018-11-12T18:38:33.956Z,37.75
2018-11-12T18:41:04.071Z,37.52
2018-11-12T18:43:33.211Z,37.63
2018-11-12T18:46:02.133Z,37.58
2018-11-12T18:48:31.084Z,38.17
2018-11-12T18:51:00.738Z,37.57
2018-11-12T18:53:29.665Z,38.07
2018-11-12T18:55:58.475Z,37.50
2018-11-12T18:58:27.319Z,37.65
2018-11-12T19:00:56.204Z,37.43
2018-11-12T19:03:25.089Z,37.58
2018-11-12T19:05:53.979Z,37.49
2018-11-12T19:08:22.784Z,37.42
2018-11-12T19:10:51.653Z,37.33
2018-11-12T19:13:20.615Z,37.38
2018-11-12T19:15:49.439Z,37.29
2018-11-12T19:18:18.244Z,37.82
2018-11-12T19:20:47.268Z,37.22
2018-11-12T19:23:16.230Z,37.36
2018-11-12T19:25:45.067Z,37.32
2018-11-12T19:28:13.984Z,37.84
2018-11-12T19:30:42.792Z,37.69
2018-11-12T19:33:11.652Z,37.33
2018-11-12T19:35:40.516Z,37.26
2018-11-12T19:38:09.383Z,37.25
2018-11-12T19:40:38.284Z,37.18
2018-11-12T19:43:07.195Z,37.67
2018-11-12T19:45:36.106Z,37.71
2018-11-12T19:48:05.096Z,37.29
2018-11-12T19:50:33.940Z,37.40
2018-11-12T19:53:03.099Z,37.13
2018-11-12T19:55:32.044Z,37.73
2018-11-12T19:58:00.991Z,37.39
2018-11-12T20:00:30.394Z,37.12
2018-11-12T20:03:00.860Z,37.31
2018-11-12T20:05:29.826Z,37.24
2018-11-12T20:07:58.671Z,37.62
2018-11-12T20:10:27.518Z,37.67
2018-11-12T20:12:56.362Z,37.74
2018-11-12T20:15:25.915Z,37.55
2018-11-12T20:17:55.236Z,37.06
2018-11-12T20:20:25.569Z,37.60
2018-11-12T20:22:54.636Z,37.58
2018-11-12T20:25:23.608Z,37.69
2018-11-12T20:27:53.534Z,37.06
2018-11-12T20:30:26.226Z,37.04
2018-11-12T20:32:55.295Z,37.56
2018-11-12T20:35:24.164Z,37.12
2018-11-12T20:37:53.182Z,37.12
2018-11-12T20:40:22.003Z,37.40
2018-11-12T20:42:50.996Z,36.99
2018-11-12T20:45:20.907Z,37.51
2018-11-12T20:47:51.074Z,37.46
2018-11-12T20:50:19.973Z,37.54
2018-11-12T20:52:48.894Z,36.97
2018-11-12T20:55:18.397Z,37.49
2018-11-12T20:57:47.308Z,36.97
2018-11-12T21:00:20.611Z,37.49
2018-11-12T21:02:50.605Z,37.36
2018-11-12T21:05:21.458Z,38.09
2018-11-12T21:07:50.447Z,38.11
2018-11-12T21:10:19.862Z,37.87
2018-11-12T21:12:49.422Z,37.59
2018-11-12T21:15:19.370Z,37.68
2018-11-12T21:17:48.259Z,37.87
2018-11-12T21:20:20.719Z,37.74
2018-11-12T21:22:49.626Z,38.42
2018-11-12T21:25:21.851Z,38.49
2018-11-12T21:27:50.687Z,38.09
2018-11-12T21:30:21.042Z,38.11
2018-11-12T21:32:50.044Z,38.68
2018-11-12T21:35:19.134Z,38.71
2018-11-12T21:37:48.720Z,38.13
2018-11-12T21:40:20.001Z,38.49
2018-11-12T21:42:48.972Z,38.20
2018-11-12T21:45:19.563Z,38.70
2018-11-12T21:47:48.430Z,38.20
2018-11-12T21:50:18.499Z,38.19
2018-11-12T21:52:47.391Z,38.75
2018-11-12T21:55:16.376Z,38.22
2018-11-12T21:57:45.872Z,38.33
2018-11-12T22:00:17.546Z,38.57
2018-11-12T22:02:47.674Z,38.17
2018-11-12T22:05:16.467Z,38.40
2018-11-12T22:07:45.356Z,38.35
2018-11-12T22:10:15.237Z,37.99
2018-11-12T22:12:45.444Z,38.29
2018-11-12T22:15:14.315Z,38.45
2018-11-12T22:17:43.107Z,38.42
2018-11-12T22:20:14.527Z,38.41
2018-11-12T22:22:43.592Z,37.87
2018-11-12T22:25:13.712Z,38.25
2018-11-12T22:27:43.040Z,38.10
2018-11-12T22:30:14.247Z,38.10
2018-11-12T22:32:43.326Z,37.40
2018-11-12T22:35:12.153Z,37.85
2018-11-12T22:37:41.205Z,37.87
2018-11-12T22:40:11.611Z,37.77
2018-11-12T22:42:41.133Z,37.58
2018-11-12T22:45:12.202Z,37.13
2018-11-12T22:47:41.446Z,37.36
2018-11-12T22:50:11.026Z,37.10
2018-11-12T22:52:40.427Z,37.57
2018-11-12T22:55:10.230Z,37.49
2018-11-12T22:57:39.071Z,37.50
2018-11-12T23:00:17.551Z,37.31
2018-11-12T23:02:46.363Z,36.96
2018-11-12T23:05:15.732Z,36.79
2018-11-12T23:07:45.229Z,36.84
2018-11-12T23:10:14.161Z,36.79
2018-11-12T23:12:43.007Z,36.94
2018-11-12T23:15:12.794Z,37.32
2018-11-12T23:17:41.945Z,36.76
2018-11-12T23:20:21.228Z,36.71
2018-11-12T23:22:50.445Z,37.26
2018-11-12T23:25:19.310Z,36.84
2018-11-12T23:27:48.882Z,36.83
2018-11-12T23:30:18.990Z,37.19
2018-11-12T23:32:47.744Z,37.29
2018-11-12T23:35:19.893Z,37.16
2018-11-12T23:37:49.213Z,37.10
2018-11-12T23:40:18.865Z,36.83
2018-11-12T23:42:48.085Z,36.58
2018-11-12T23:45:16.897Z,36.62
2018-11-12T23:47:45.647Z,37.27
2018-11-12T23:50:19.889Z,36.56
2018-11-12T23:52:49.433Z,36.68
2018-11-12T23:55:18.557Z,37.17
2018-11-12T23:57:48.051Z,37.03
